Latest Weather Observations for Mount Isa

IDQ60801

Issued at 4:32 pm EST Saturday 28 February 2015 (issued every 30 minutes, with the page automatically refreshed every 10 minutes)

About weather observations | Map of weather stations | Latest weather observations for QLD | Other Formats
Station Details ID: 029127 Name: MOUNT ISA AERO Lat: -20.68 Lon: 139.49 Height: 340.3 m
Data from the previous 72 hours. | See also: Recent months at Mount Isa
Date/Time
EST
Temp
°C
App
Temp
°C
Dew
Point
Rel
Hum
%
Delta-T
°C
Wind Press
QNH
hPa
Press
MSL
hPa
Rain
since 9 am
mm
Dir
 
Spd
km/h
Gust
km/h
Spd
kts
Gust
kts
28/04:30pm 37.4 37.1 19.1 34 12.3 WNW 19 26 10 14 1004.4 - 0.2
28/04:00pm 37.6 37.7 19.2 34 12.4 NNW 17 30 9 16 1004.7 - 0.2
28/03:30pm 37.3 37.3 19.8 36 11.8 W 19 30 10 16 1005.1 - 0.2
28/03:00pm 37.0 37.2 20.1 37 11.5 WNW 19 30 10 16 1005.4 1002.9 0.2
28/02:30pm 36.9 36.8 20.7 39 11.1 WNW 22 28 12 15 1005.6 - 0.2
28/02:00pm 36.9 36.5 20.9 39 11.0 W 24 33 13 18 1006.2 - 0.2
28/01:30pm 36.0 35.9 20.8 41 10.4 W 22 35 12 19 1006.5 - 0.2
28/01:00pm 36.0 37.1 21.9 44 9.8 W 19 30 10 16 1006.8 - 0.2
28/12:30pm 35.6 36.3 21.2 43 9.9 WNW 19 28 10 15 1007.0 - 0.2
28/12:00pm 34.7 36.1 22.5 49 8.5 WNW 19 32 10 17 1007.3 1004.8 0.2
28/11:30am 33.6 33.4 21.3 48 8.4 NNW 24 32 13 17 1007.6 - 0.2
28/11:00am 33.7 34.6 22.0 50 8.1 NW 20 26 11 14 1007.8 - 0.2
28/10:30am 32.6 33.4 21.7 52 7.5 NNW 20 28 11 15 1008.2 - 0.2
28/10:00am 31.7 32.6 21.5 54 7.0 NNW 19 26 10 14 1008.4 - 0.0
28/09:30am 30.7 31.6 22.0 59 6.0 NNW 20 24 11 13 1008.6 - 0.0
28/09:00am 29.6 31.1 22.0 63 5.2 NNW 17 20 9 11 1008.6 1006.1 21.6
28/08:30am 28.2 32.7 23.6 76 3.2 N 6 9 3 5 1008.3 - 21.6
28/08:00am 26.5 30.3 23.5 83 2.1 NNE 9 13 5 7 1007.9 - 21.6
28/07:00am 24.2 29.8 23.6 96 0.4 CALM 0 0 0 0 1007.4 - 21.6
28/06:30am 24.0 29.3 23.1 95 0.6 CALM 0 0 0 0 1007.2 - 21.6
28/06:00am 24.0 28.1 23.3 96 0.5 NNW 7 9 4 5 1007.0 1004.5 21.6
28/05:30am 24.3 29.5 23.6 96 0.5 SE 2 7 1 4 1006.8 - 21.6
28/05:00am 24.8 29.3 23.9 95 0.6 S 7 7 4 4 1006.7 - 21.6
28/04:30am 24.7 29.3 23.8 95 0.6 SSE 6 7 3 4 1006.6 - 21.6
28/04:00am 24.4 29.2 23.5 95 0.6 NE 4 7 2 4 1006.5 - 21.6
28/03:30am 24.2 28.5 23.3 95 0.6 N 6 7 3 4 1006.2 - 21.6
28/03:00am 24.3 28.4 23.3 94 0.7 N 7 7 4 4 1006.2 1003.7 21.6
28/02:30am 24.5 28.6 23.3 93 0.8 NNW 7 9 4 5 1006.4 - 21.6
28/02:00am 24.9 29.2 23.7 93 0.8 N 7 9 4 5 1006.6 - 21.6
28/01:30am 24.9 29.2 23.3 91 1.1 SSW 6 9 3 5 1006.7 - 21.6
28/01:00am 25.1 29.6 23.9 93 0.8 S 7 9 4 5 1006.8 - 21.6
28/12:30am 25.2 29.6 23.5 90 1.2 S 6 9 3 5 1007.0 - 21.6
28/12:00am 25.1 30.8 23.8 92 0.9 CALM 0 0 0 0 1007.0 1004.5 21.6
 
Date/Time
EST
Temp
°C
App
Temp
°C
Dew
Point
Rel
Hum
%
Delta-T
°C
Wind Press
QNH
hPa
Press
MSL
hPa
Rain
since 9 am
mm
Dir
 
Spd
km/h
Gust
km/h
Spd
kts
Gust
kts
27/11:30pm 25.2 30.6 23.3 89 1.3 CALM 0 0 0 0 1007.0 - 21.6
27/11:00pm 25.4 29.6 23.1 87 1.6 NNW 6 9 3 5 1007.2 - 21.6
27/10:30pm 25.3 29.0 22.5 84 1.9 NNE 7 11 4 6 1007.5 - 21.6
27/10:00pm 25.0 28.6 22.4 85 1.8 NNW 7 11 4 6 1007.9 - 21.6
27/09:30pm 24.8 28.0 22.4 86 1.6 N 9 11 5 6 1008.5 - 21.6
27/09:00pm 24.6 27.9 22.5 88 1.4 NNE 9 13 5 7 1008.1 1005.6 21.6
27/08:30pm 24.6 23.9 21.8 84 1.9 NNW 28 33 15 18 1006.6 - 21.6
27/08:00pm 24.1 22.9 22.2 89 1.3 NNW 32 44 17 24 1007.0 - 21.6
27/07:54pm 23.9 22.7 22.3 91 1.1 NNW 32 43 17 23 1006.8 - 21.6
27/07:42pm 23.2 21.9 22.5 96 0.5 NNW 33 52 18 28 1007.2 - 21.6
27/07:30pm 23.2 21.9 23.1 99 0.1 NNW 35 50 19 27 1006.9 - 20.6
27/07:25pm 23.7 23.5 22.7 94 0.7 NNW 28 41 15 22 1007.5 - 18.0
27/07:17pm 24.9 27.8 22.4 86 1.7 N 11 20 6 11 1007.9 - 9.0
27/07:05pm 29.1 30.9 21.9 65 4.9 NE 15 33 8 18 1007.3 - 0.8
27/07:00pm 29.7 30.8 21.3 60 5.7 ENE 17 33 9 18 1006.5 - 0.0
27/06:58pm 29.8 30.6 21.3 60 5.8 NNE 19 26 10 14 1006.1 - 0.0
27/06:30pm 31.5 31.6 20.4 51 7.5 NNW 20 32 11 17 1004.0 - 0.0
27/06:00pm 32.5 32.6 20.0 47 8.4 NNW 19 24 10 13 1003.8 1001.3 0.0
27/05:30pm 34.0 32.0 19.2 41 9.9 NW 28 35 15 19 1003.7 - 0.0
27/05:00pm 34.5 32.5 19.1 40 10.3 WNW 28 33 15 18 1003.8 - 0.0
27/04:30pm 35.2 32.6 19.4 39 10.6 NW 32 39 17 21 1004.0 - 0.0
27/04:20pm 36.8 34.3 20.2 38 11.3 W 33 46 18 25 1003.8 - 0.0
27/04:00pm 37.9 39.9 19.2 33 12.6 W 7 15 4 8 1003.6 - 0.0
27/03:30pm 38.0 37.8 19.8 34 12.3 N 20 30 11 16 1004.0 - 0.0
27/03:00pm 37.8 37.6 19.3 34 12.5 NNW 19 26 10 14 1004.4 1001.9 0.0
27/02:30pm 36.0 36.1 19.9 39 10.9 NW 19 33 10 18 1005.1 - 0.0
27/02:00pm 36.6 37.0 20.9 40 10.8 NW 20 32 11 17 1005.7 - 0.0
27/01:30pm 37.0 37.3 20.8 39 11.1 NNW 20 33 11 18 1006.2 - 0.0
27/01:00pm 36.5 36.7 21.3 41 10.5 WNW 22 30 12 16 1006.7 - 0.0
27/12:30pm 35.3 35.9 21.0 43 9.8 NW 19 30 10 16 1007.4 - 0.0
27/12:00pm 35.4 36.5 21.3 44 9.7 WNW 17 28 9 15 1008.1 1005.6 0.0
27/11:30am 34.5 35.0 21.1 45 9.2 W 20 28 11 15 1008.4 - 0.0
27/11:00am 33.8 34.5 20.5 45 9.0 WNW 17 26 9 14 1008.7 - 0.0
27/10:30am 33.1 32.7 20.9 48 8.3 NNW 24 32 13 17 1008.9 - 0.0
27/10:00am 32.1 32.7 21.4 53 7.3 NNW 20 26 11 14 1009.1 - 0.0
27/09:30am 31.2 32.1 22.0 58 6.3 NW 20 32 11 17 1009.2 - 0.0
27/09:00am 30.1 31.2 22.4 63 5.3 NW 20 30 11 16 1009.1 1006.6 5.4
27/08:30am 29.2 31.9 23.5 71 4.0 NW 15 24 8 13 1009.0 - 5.2
27/08:00am 28.0 32.2 23.5 76 3.1 SSW 7 9 4 5 1008.6 - 5.2
27/07:30am 26.6 32.2 24.2 87 1.7 SSW 2 6 1 3 1008.5 - 5.2
27/07:00am 24.9 30.1 24.2 96 0.5 NE 4 6 2 3 1008.2 - 5.2
27/06:30am 24.3 29.2 23.7 96 0.4 WSW 4 7 2 4 1007.6 - 5.2
27/06:00am 24.6 30.4 23.9 96 0.5 CALM 0 0 0 0 1007.2 1004.7 5.2
27/05:30am 24.9 30.7 24.0 95 0.6 CALM 0 0 0 0 1006.9 - 5.2
27/05:00am 24.9 30.7 24.0 95 0.6 CALM 0 0 0 0 1006.5 - 5.2
27/04:30am 25.1 30.6 24.1 94 0.7 SE 2 7 1 4 1006.3 - 5.2
27/04:00am 25.0 29.8 24.1 95 0.6 S 6 7 3 4 1006.0 - 5.2
27/03:30am 25.3 31.1 24.0 92 0.9 CALM 0 0 0 0 1006.0 - 5.2
27/03:00am 25.0 30.0 23.8 93 0.8 S 4 7 2 4 1006.3 1003.8 5.2
27/02:30am 25.2 30.3 24.1 94 0.8 ENE 4 9 2 5 1006.6 - 5.2
27/02:00am 25.3 31.1 23.9 92 1.0 CALM 0 4 0 2 1006.6 - 5.2
27/01:30am 25.3 30.8 23.4 89 1.3 CALM 0 0 0 0 1006.8 - 5.2
27/01:00am 25.2 29.1 23.6 91 1.1 WNW 9 11 5 6 1007.1 - 5.2
27/12:30am 25.1 29.5 23.4 90 1.2 WNW 6 7 3 4 1007.1 - 5.2
27/12:00am 25.6 28.6 22.7 84 2.0 N 11 13 6 7 1007.2 1004.7 5.2
 
Date/Time
EST
Temp
°C
App
Temp
°C
Dew
Point
Rel
Hum
%
Delta-T
°C
Wind Press
QNH
hPa
Press
MSL
hPa
Rain
since 9 am
mm
Dir
 
Spd
km/h
Gust
km/h
Spd
kts
Gust
kts
26/11:30pm 25.5 27.5 22.9 85 1.8 N 17 20 9 11 1007.0 - 5.2
26/11:00pm 24.8 27.2 22.3 86 1.7 NE 13 17 7 9 1007.6 - 5.2
26/10:49pm 24.4 27.6 22.3 88 1.4 S 9 13 5 7 1008.1 - 5.2
26/10:30pm 24.3 22.8 22.1 87 1.5 SSW 33 46 18 25 1008.8 - 5.0
26/10:26pm 24.8 22.6 22.1 85 1.8 S 37 52 20 28 1009.1 - 3.4
26/10:04pm 27.4 23.8 21.0 68 4.3 S 41 59 22 32 1009.1 - 2.6
26/10:00pm 27.1 22.2 21.1 69 4.0 S 48 59 26 32 1009.2 - 2.6
26/09:57pm 27.3 25.8 20.9 68 4.3 S 30 48 16 26 1009.3 - 2.6
26/09:54pm 28.2 28.5 22.2 70 4.1 SSE 24 28 13 15 1009.1 - 2.6
26/09:30pm 27.9 29.9 21.6 68 4.3 NNE 13 17 7 9 1007.0 - 2.6
26/09:00pm 27.9 28.1 22.0 70 4.0 N 24 30 13 16 1006.9 1004.4 2.6
26/08:30pm 28.0 28.4 21.0 65 4.7 N 20 26 11 14 1007.0 - 2.6
26/08:00pm 29.6 30.7 23.0 67 4.6 N 22 28 12 15 1006.1 - 2.6
26/07:30pm 28.5 32.3 23.5 74 3.5 W 9 13 5 7 1005.2 - 2.6
26/07:00pm 28.7 29.6 20.8 62 5.3 NNE 17 28 9 15 1005.1 - 2.6
26/06:42pm 29.9 27.3 20.7 57 6.2 W 35 54 19 29 1005.2 - 1.4
26/06:40pm 29.8 25.7 20.8 58 6.1 WNW 43 54 23 29 1005.2 - 0.8
26/06:37pm 29.9 25.3 20.0 55 6.6 WSW 44 54 24 29 1005.1 - 0.4
26/06:34pm 30.0 28.6 20.5 56 6.4 SSW 28 50 15 27 1005.0 - 0.2
26/06:30pm 32.4 35.1 21.3 52 7.6 SE 9 20 5 11 1004.7 - 0.0
26/06:00pm 37.1 38.2 17.9 32 12.7 ENE 9 13 5 7 1004.1 1001.6 0.0
26/05:30pm 38.0 39.7 17.2 29 13.6 NE 4 9 2 5 1004.0 - 0.0
26/05:00pm 37.4 38.1 17.9 31 12.9 NE 11 15 6 8 1003.7 - 0.0
26/04:30pm 37.7 39.2 18.0 31 13.0 SSW 7 15 4 8 1003.8 - 0.0
26/04:00pm 37.5 38.5 18.7 33 12.6 ESE 11 19 6 10 1004.2 - 0.0
26/03:30pm 36.9 37.7 19.0 35 12.0 SE 13 19 7 10 1004.5 - 0.0
26/03:00pm 36.3 37.6 19.4 37 11.4 N 11 22 6 12 1005.2 1002.6 0.0
26/02:30pm 36.5 38.1 19.1 36 11.7 ESE 9 15 5 8 1005.6 - 0.0
26/02:00pm 36.3 37.8 19.0 36 11.6 ENE 9 19 5 10 1006.1 - 0.0
26/01:30pm 36.0 37.6 19.1 37 11.3 NE 9 15 5 8 1006.7 - 0.0
26/01:00pm 35.5 37.2 19.4 38 10.8 N 9 17 5 9 1007.2 - 0.0
26/12:30pm 35.4 37.0 19.9 40 10.5 ENE 11 17 6 9 1007.8 - 0.0
26/12:00pm 35.2 36.7 18.8 38 10.9 NNW 9 15 5 8 1008.4 1005.9 0.0
26/11:30am 34.0 35.7 18.6 40 10.2 SW 7 11 4 6 1008.8 - 0.0
26/11:00am 33.1 35.4 19.5 44 9.1 W 6 9 3 5 1009.0 - 0.0
26/10:30am 32.0 35.0 21.3 53 7.3 ENE 7 11 4 6 1009.3 - 0.0
26/10:00am 30.9 34.4 21.8 58 6.2 SSW 6 9 3 5 1009.3 - 0.0
26/09:30am 29.4 31.3 21.3 61 5.5 SSW 13 17 7 9 1009.1 - 0.0
26/09:00am 28.6 31.2 21.2 64 5.0 S 9 13 5 7 1009.5 1007.0 8.0
26/08:30am 27.7 29.7 21.5 69 4.2 SSW 13 19 7 10 1009.3 - 7.8
26/08:00am 27.2 29.2 21.6 71 3.8 SSW 13 15 7 8 1009.2 - 7.8
26/07:30am 26.1 28.8 22.1 78 2.7 S 11 15 6 8 1008.9 - 7.8
26/07:00am 24.2 29.4 22.9 92 0.9 CALM 0 0 0 0 1008.7 - 7.8
26/06:30am 24.0 29.3 23.0 94 0.7 CALM 0 0 0 0 1007.8 - 7.8
26/06:00am 24.0 28.3 22.7 92 0.9 WSW 4 9 2 5 1007.6 1005.1 7.8
26/05:30am 24.5 28.7 22.4 88 1.4 E 4 7 2 4 1007.3 - 7.8
26/05:00am 24.6 28.2 22.4 87 1.5 NW 7 11 4 6 1007.5 - 7.8
26/04:30am 25.1 29.8 22.6 86 1.7 NNE 2 9 1 5 1007.2 - 7.8
26/04:00am 25.0 29.0 22.7 87 1.6 N 6 9 3 5 1006.8 - 7.8
26/03:30am 24.9 28.8 23.0 89 1.3 WNW 7 9 4 5 1006.5 - 7.8
26/03:00am 25.2 28.4 22.4 84 1.9 WSW 9 9 5 5 1006.5 1004.0 7.8
26/02:30am 25.0 27.7 21.4 80 2.4 WNW 9 13 5 7 1007.0 - 7.8
26/02:00am 25.2 28.9 21.5 80 2.5 E 4 11 2 6 1007.7 - 7.8
26/01:30am 26.0 28.3 20.7 72 3.5 NE 9 15 5 8 1008.6 - 7.8
26/01:00am 25.8 25.1 21.0 75 3.2 E 26 35 14 19 1009.1 - 7.8
26/12:30am 26.2 24.5 20.6 71 3.7 ESE 30 48 16 26 1010.6 - 7.8
26/12:00am 26.2 23.5 19.3 65 4.5 SE 32 52 17 28 1010.9 1008.5 7.8
 
Date/Time
EST
Temp
°C
App
Temp
°C
Dew
Point
Rel
Hum
%
Delta-T
°C
Wind Press
QNH
hPa
Press
MSL
hPa
Rain
since 9 am
mm
Dir
 
Spd
km/h
Gust
km/h
Spd
kts
Gust
kts
25/11:56pm 25.9 23.7 20.3 71 3.7 SE 32 52 17 28 1010.9 - 7.8
25/11:55pm 25.5 24.8 21.8 80 2.5 SE 28 43 15 23 1010.8 - 7.8
25/11:30pm 25.0 29.6 21.7 82 2.2 CALM 0 4 0 2 1008.7 - 7.6
25/11:00pm 25.1 26.6 20.6 76 3.0 NW 13 17 7 9 1008.7 - 7.6
25/10:30pm 24.8 25.0 20.6 77 2.8 ENE 20 28 11 15 1008.8 - 7.6
25/10:00pm 25.7 25.5 19.3 67 4.2 E 19 33 10 18 1008.9 - 7.6
25/09:30pm 26.4 23.6 19.0 63 4.8 SSE 32 50 17 27 1009.1 - 7.2
25/09:12pm 26.3 21.8 19.9 68 4.2 SSE 43 61 23 33 1009.7 - 7.2
25/09:07pm 26.7 21.4 20.2 67 4.3 SSE 48 61 26 33 1009.7 - 7.2
25/09:00pm 26.1 26.8 23.0 83 2.1 SSE 24 43 13 23 1009.3 1006.8 7.2
25/08:59pm 26.1 27.6 23.0 83 2.1 SSE 20 28 11 15 1009.1 - 7.2
25/08:30pm 25.5 29.2 23.2 87 1.6 NE 9 11 5 6 1006.8 - 7.2
25/08:00pm 25.6 28.5 23.1 86 1.7 NNW 13 17 7 9 1007.0 - 7.2
25/07:36pm 26.3 29.8 22.8 81 2.4 ESE 9 15 5 8 1006.9 - 7.2
25/07:30pm 26.5 30.0 22.1 77 3.0 NE 7 9 4 5 1006.8 - 7.2
25/07:27pm 25.8 26.9 22.4 81 2.3 WNW 20 28 11 15 1006.7 - 7.2
25/07:19pm 26.5 24.1 21.8 75 3.2 WSW 37 46 20 25 1006.4 - 7.2
25/07:10pm 26.0 25.0 22.0 78 2.7 SW 30 43 16 23 1007.1 - 3.8
25/07:00pm 29.3 28.6 21.8 64 5.1 SW 28 41 15 22 1007.6 - 3.0
25/06:55pm 29.1 28.8 22.6 68 4.5 SW 28 35 15 19 1007.6 - 3.0
25/06:30pm 29.0 33.9 24.6 77 3.1 WNW 7 11 4 6 1005.8 - 3.0
25/06:00pm 29.1 33.7 24.7 77 3.1 WNW 9 13 5 7 1005.7 1003.2 3.0
25/05:30pm 28.3 33.8 24.6 80 2.6 ESE 4 11 2 6 1005.1 - 3.0
25/05:00pm 28.1 29.4 22.4 71 3.9 SW 19 26 10 14 1005.2 - 2.4
25/04:47pm 27.2 26.1 22.4 75 3.3 W 32 39 17 21 1005.3 - 2.4

Other Formats:

Comma delimited format used in spreadsheet applications
http://www.bom.gov.au/fwo/IDQ60801/IDQ60801.94332.axf

JavaScript Object Notation format (JSON) in row-major order
http://www.bom.gov.au/fwo/IDQ60801/IDQ60801.94332.json